createdAt,value
2023-01-03T00:00:50.135Z,1007.5
2023-01-03T00:01:52.089Z,1007.5
2023-01-03T00:02:53.411Z,1007.5
2023-01-03T00:03:54.583Z,1007.5
2023-01-03T00:04:55.977Z,1007.6
2023-01-03T00:05:57.271Z,1007.6
2023-01-03T00:06:58.669Z,1007.6
2023-01-03T00:07:59.561Z,1007.6
2023-01-03T00:09:00.476Z,1007.6
2023-01-03T00:10:02.015Z,1007.6
2023-01-03T00:11:02.922Z,1007.6
2023-01-03T00:12:04.336Z,1007.6
2023-01-03T00:13:05.757Z,1007.6
2023-01-03T00:14:07.163Z,1007.6
2023-01-03T00:15:08.580Z,1007.6
2023-01-03T00:16:09.999Z,1007.6
2023-01-03T00:17:11.330Z,1007.6
2023-01-03T00:18:12.725Z,1007.6
2023-01-03T00:19:14.262Z,1007.6
2023-01-03T00:20:15.609Z,1007.6
2023-01-03T00:21:16.823Z,1007.6
2023-01-03T00:22:18.021Z,1007.6
2023-01-03T00:23:19.433Z,1007.6
2023-01-03T00:24:20.603Z,1007.6
2023-01-03T00:25:21.749Z,1007.6
2023-01-03T00:26:22.934Z,1007.7
2023-01-03T00:27:23.937Z,1007.7
2023-01-03T00:28:25.067Z,1007.7
2023-01-03T00:29:25.974Z,1007.6
2023-01-03T00:30:27.591Z,1007.7
2023-01-03T00:31:28.737Z,1007.7
2023-01-03T00:32:29.882Z,1007.7
2023-01-03T00:33:31.292Z,1007.7
2023-01-03T00:34:32.737Z,1007.7
2023-01-03T00:35:34.111Z,1007.7
2023-01-03T00:36:35.573Z,1007.7
2023-01-03T00:37:36.967Z,1007.7
2023-01-03T00:38:37.589Z,1007.8
2023-01-03T00:39:39.000Z,1007.7
2023-01-03T00:40:40.419Z,1007.7
2023-01-03T00:41:41.553Z,1007.7
2023-01-03T00:42:42.461Z,1007.7
2023-01-03T00:43:43.601Z,1007.8
2023-01-03T00:44:45.020Z,1007.7
2023-01-03T00:45:46.449Z,1007.7
2023-01-03T00:46:47.883Z,1007.7
2023-01-03T00:47:49.297Z,1007.8
2023-01-03T00:48:50.444Z,1007.8
2023-01-03T00:49:51.658Z,1007.8
2023-01-03T00:50:53.045Z,1007.8
2023-01-03T00:51:54.508Z,1007.8
2023-01-03T00:52:55.988Z,1007.8
2023-01-03T00:53:57.131Z,1007.8
2023-01-03T00:54:58.620Z,1007.8
2023-01-03T00:56:00.037Z,1007.8
2023-01-03T00:57:01.182Z,1007.9
2023-01-03T00:58:02.351Z,1007.9
2023-01-03T00:59:03.775Z,1007.9
2023-01-03T01:00:04.910Z,1007.9
2023-01-03T01:01:06.099Z,1007.9
2023-01-03T01:02:07.925Z,1007.9
2023-01-03T01:03:10.225Z,1007.9
2023-01-03T01:04:12.103Z,1007.9
2023-01-03T01:05:13.835Z,1007.9
2023-01-03T01:06:14.971Z,1007.9
2023-01-03T01:07:16.407Z,1007.9
2023-01-03T01:08:17.585Z,1007.9
2023-01-03T01:09:18.999Z,1008
2023-01-03T01:10:19.659Z,1008
2023-01-03T01:11:21.082Z,1008
2023-01-03T01:12:22.493Z,1008
2023-01-03T01:13:23.629Z,1008
2023-01-03T01:14:25.044Z,1008
2023-01-03T01:15:25.970Z,1008
2023-01-03T01:16:27.686Z,1008
2023-01-03T01:17:28.729Z,1008
2023-01-03T01:18:30.147Z,1008
2023-01-03T01:19:31.063Z,1008.1
2023-01-03T01:20:32.212Z,1008.1
2023-01-03T01:21:33.601Z,1008.1
2023-01-03T01:22:35.165Z,1008.1
2023-01-03T01:23:36.073Z,1008.1
2023-01-03T01:24:36.679Z,1008.1
2023-01-03T01:25:38.097Z,1008.1
2023-01-03T01:26:38.961Z,1008.1
2023-01-03T01:27:39.863Z,1008.1
2023-01-03T01:28:41.013Z,1008.1
2023-01-03T01:29:42.407Z,1008.1
2023-01-03T01:30:43.642Z,1008.2
2023-01-03T01:31:45.203Z,1008.2
2023-01-03T01:32:46.589Z,1008.2
2023-01-03T01:33:47.729Z,1008.2
2023-01-03T01:34:48.914Z,1008.2
2023-01-03T01:35:50.364Z,1008.3
2023-01-03T01:36:51.782Z,1008.3
2023-01-03T01:37:52.705Z,1008.4
2023-01-03T01:38:54.121Z,1008.4
2023-01-03T01:39:55.306Z,1008.4
2023-01-03T01:40:56.439Z,1008.5
2023-01-03T01:41:57.610Z,1008.5
2023-01-03T01:42:59.032Z,1008.5
2023-01-03T01:44:00.164Z,1008.5
2023-01-03T01:45:00.820Z,1008.5
2023-01-03T01:46:02.345Z,1008.6
2023-01-03T01:47:03.196Z,1008.6
2023-01-03T01:48:04.097Z,1008.6
2023-01-03T01:49:05.516Z,1008.6
2023-01-03T01:50:06.374Z,1008.6
2023-01-03T01:51:07.530Z,1008.6
2023-01-03T01:52:08.926Z,1008.6
2023-01-03T01:53:10.059Z,1008.6
2023-01-03T01:54:11.239Z,1008.6
2023-01-03T01:55:12.662Z,1008.6
2023-01-03T01:56:13.928Z,1008.6
2023-01-03T01:57:14.835Z,1008.7
2023-01-03T01:58:15.982Z,1008.7
2023-01-03T01:59:17.108Z,1008.7
2023-01-03T02:00:18.521Z,1008.7
2023-01-03T02:01:20.254Z,1008.7
2023-01-03T02:02:22.231Z,1008.7
2023-01-03T02:03:23.696Z,1008.7
2023-01-03T02:04:25.251Z,1008.7
2023-01-03T02:05:26.082Z,1008.7
2023-01-03T02:06:27.629Z,1008.7
2023-01-03T02:07:28.524Z,1008.7
2023-01-03T02:08:29.656Z,1008.7
2023-01-03T02:09:30.796Z,1008.8
2023-01-03T02:10:32.207Z,1008.8
2023-01-03T02:11:33.341Z,1008.8
2023-01-03T02:12:34.243Z,1008.9
2023-01-03T02:13:35.681Z,1008.9
2023-01-03T02:14:36.797Z,1008.9
2023-01-03T02:15:37.907Z,1008.9
2023-01-03T02:16:39.548Z,1008.9
2023-01-03T02:17:40.964Z,1008.9
2023-01-03T02:18:42.100Z,1008.9
2023-01-03T02:19:43.232Z,1008.9
2023-01-03T02:20:44.459Z,1008.9
2023-01-03T02:21:45.623Z,1009
2023-01-03T02:22:47.016Z,1009
2023-01-03T02:23:48.486Z,1009
2023-01-03T02:24:49.406Z,1009
2023-01-03T02:25:50.817Z,1009
2023-01-03T02:26:52.232Z,1009
2023-01-03T02:27:53.662Z,1009
2023-01-03T02:28:55.093Z,1009
2023-01-03T02:29:56.209Z,1009
2023-01-03T02:30:57.206Z,1009
2023-01-03T02:31:58.800Z,1009
2023-01-03T02:32:59.936Z,1009
2023-01-03T02:34:01.117Z,1009
2023-01-03T02:35:01.743Z,1009
2023-01-03T02:36:02.869Z,1009
2023-01-03T02:37:04.101Z,1009
2023-01-03T02:38:04.935Z,1009
2023-01-03T02:39:05.581Z,1009
2023-01-03T02:40:06.718Z,1009
2023-01-03T02:41:08.150Z,1009
2023-01-03T02:42:09.565Z,1009
2023-01-03T02:43:10.507Z,1009
2023-01-03T02:44:11.610Z,1009
2023-01-03T02:45:12.752Z,1009
2023-01-03T02:46:14.304Z,1009
2023-01-03T02:47:15.719Z,1009.1
2023-01-03T02:48:17.122Z,1009
2023-01-03T02:49:18.248Z,1009
2023-01-03T02:50:19.101Z,1009
2023-01-03T02:51:20.533Z,1009
2023-01-03T02:52:21.976Z,1009
2023-01-03T02:53:22.850Z,1009
2023-01-03T02:54:24.272Z,1009
2023-01-03T02:55:25.450Z,1009
2023-01-03T02:56:26.871Z,1009
2023-01-03T02:57:28.278Z,1009
2023-01-03T02:58:29.188Z,1009
2023-01-03T02:59:30.595Z,1009
2023-01-03T03:00:32.011Z,1009
2023-01-03T03:01:33.764Z,1009
2023-01-03T03:02:35.854Z,1009.1
2023-01-03T03:03:37.944Z,1009.1
2023-01-03T03:04:39.413Z,1009.1
2023-01-03T03:05:40.829Z,1009.1
2023-01-03T03:06:41.751Z,1009.1
2023-01-03T03:07:43.191Z,1009.1
2023-01-03T03:08:44.582Z,1009.1
2023-01-03T03:09:45.999Z,1009.1
2023-01-03T03:10:47.133Z,1009.1
2023-01-03T03:11:48.549Z,1009.2
2023-01-03T03:12:49.729Z,1009.2
2023-01-03T03:13:50.871Z,1009.2
2023-01-03T03:14:52.284Z,1009.2
2023-01-03T03:15:53.466Z,1009.2
2023-01-03T03:16:55.047Z,1009.2
2023-01-03T03:17:56.159Z,1009.2
2023-01-03T03:18:57.575Z,1009.2
2023-01-03T03:20:06.916Z,1009.2
2023-01-03T03:21:08.534Z,1009.2
2023-01-03T03:22:09.940Z,1009.2
2023-01-03T03:23:11.480Z,1009.3
2023-01-03T03:24:12.899Z,1009.3
2023-01-03T03:25:14.325Z,1009.3
2023-01-03T03:26:15.738Z,1009.3
2023-01-03T03:27:17.157Z,1009.3
2023-01-03T03:28:18.022Z,1009.3
2023-01-03T03:29:19.430Z,1009.3
2023-01-03T03:30:20.843Z,1009.3
2023-01-03T03:31:22.104Z,1009.3
2023-01-03T03:32:23.598Z,1009.3
2023-01-03T03:33:25.011Z,1009.4
2023-01-03T03:34:26.148Z,1009.4
2023-01-03T03:35:27.286Z,1009.4
2023-01-03T03:36:28.700Z,1009.4
2023-01-03T03:37:29.838Z,1009.4
2023-01-03T03:38:31.274Z,1009.4
2023-01-03T03:39:32.784Z,1009.5
2023-01-03T03:40:33.903Z,1009.5
2023-01-03T03:41:35.321Z,1009.5
2023-01-03T03:42:36.738Z,1009.5
2023-01-03T03:43:38.165Z,1009.5
2023-01-03T03:44:39.291Z,1009.6
2023-01-03T03:45:40.425Z,1009.6
2023-01-03T03:46:41.369Z,1009.6
2023-01-03T03:47:42.668Z,1009.6
2023-01-03T03:48:43.795Z,1009.5
2023-01-03T03:49:45.217Z,1009.5
2023-01-03T03:50:46.628Z,1009.5
2023-01-03T03:51:48.068Z,1009.5
2023-01-03T03:52:48.920Z,1009.5
2023-01-03T03:53:49.819Z,1009.5
2023-01-03T03:54:51.216Z,1009.5
2023-01-03T03:55:52.653Z,1009.5
2023-01-03T03:56:53.487Z,1009.5
2023-01-03T03:57:54.354Z,1009.5
2023-01-03T03:58:55.769Z,1009.6
2023-01-03T03:59:56.673Z,1009.6
2023-01-03T04:00:58.092Z,1009.6
2023-01-03T04:01:59.520Z,1009.6
2023-01-03T04:03:00.951Z,1009.6
2023-01-03T04:04:02.881Z,1009.6
2023-01-03T04:05:04.491Z,1009.7
2023-01-03T04:06:05.668Z,1009.7
2023-01-03T04:07:06.867Z,1009.7
2023-01-03T04:08:08.278Z,1009.7
2023-01-03T04:09:09.721Z,1009.6
2023-01-03T04:10:10.603Z,1009.7
2023-01-03T04:11:11.737Z,1009.7
2023-01-03T04:12:13.151Z,1009.7
2023-01-03T04:13:14.289Z,1009.7
2023-01-03T04:14:15.425Z,1009.7
2023-01-03T04:15:16.852Z,1009.7
2023-01-03T04:16:18.054Z,1009.6
2023-01-03T04:17:19.728Z,1009.7
2023-01-03T04:18:21.131Z,1009.6
2023-01-03T04:19:22.346Z,1009.6
2023-01-03T04:20:23.752Z,1009.6
2023-01-03T04:21:24.925Z,1009.6
2023-01-03T04:22:26.064Z,1009.7
2023-01-03T04:23:27.247Z,1009.7
2023-01-03T04:24:28.692Z,1009.7
2023-01-03T04:25:30.147Z,1009.8
2023-01-03T04:26:31.611Z,1009.8
2023-01-03T04:27:33.020Z,1009.8
2023-01-03T04:28:34.435Z,1009.8
2023-01-03T04:29:39.884Z,1009.8
2023-01-03T04:30:41.297Z,1009.8
2023-01-03T04:31:42.917Z,1009.8
2023-01-03T04:32:44.508Z,1009.8
2023-01-03T04:33:45.697Z,1009.9
2023-01-03T04:34:47.116Z,1009.9
2023-01-03T04:35:48.529Z,1009.9
2023-01-03T04:36:49.944Z,1009.9
2023-01-03T04:37:51.361Z,1009.9
2023-01-03T04:38:52.294Z,1009.9
2023-01-03T04:39:53.455Z,1009.9
2023-01-03T04:40:54.846Z,1010
2023-01-03T04:41:55.765Z,1010
2023-01-03T04:42:56.967Z,1010
2023-01-03T04:43:58.105Z,1010
2023-01-03T04:44:59.234Z,1010
2023-01-03T04:46:00.577Z,1010
2023-01-03T04:47:01.917Z,1010
2023-01-03T04:48:02.978Z,1009.9
2023-01-03T04:49:04.126Z,1010
2023-01-03T04:50:05.529Z,1010
2023-01-03T04:51:06.670Z,1010
2023-01-03T04:52:07.802Z,1010
2023-01-03T04:53:08.956Z,1010
2023-01-03T04:54:10.355Z,1010
2023-01-03T04:55:11.519Z,1010
2023-01-03T04:56:12.405Z,1010
2023-01-03T04:57:13.826Z,1010
2023-01-03T04:58:15.025Z,1010
2023-01-03T04:59:16.203Z,1010.1
2023-01-03T05:00:17.351Z,1010.1
2023-01-03T05:01:18.840Z,1010.1
2023-01-03T05:02:20.926Z,1010.1
2023-01-03T05:03:28.255Z,1010.1
2023-01-03T05:04:29.665Z,1010.1
2023-01-03T05:05:30.925Z,1010.1
2023-01-03T05:06:32.057Z,1010.1
2023-01-03T05:07:33.199Z,1010.1
2023-01-03T05:08:34.383Z,1010.1
2023-01-03T05:09:35.802Z,1010.1
2023-01-03T05:10:36.959Z,1010.1
2023-01-03T05:11:38.074Z,1010.1
2023-01-03T05:12:39.512Z,1010.1
2023-01-03T05:13:40.627Z,1010.1
2023-01-03T05:14:41.976Z,1010.1
2023-01-03T05:15:43.110Z,1010.1
2023-01-03T05:16:44.363Z,1010.1
2023-01-03T05:17:45.055Z,1010.1
2023-01-03T05:18:46.485Z,1010.1
2023-01-03T05:19:47.612Z,1010.1
2023-01-03T05:20:48.521Z,1010.1
2023-01-03T05:21:49.929Z,1010.1
2023-01-03T05:22:51.345Z,1010.1
2023-01-03T05:23:52.587Z,1010.1
2023-01-03T05:24:53.768Z,1010.1
2023-01-03T05:25:55.205Z,1010.1
2023-01-03T05:26:56.362Z,1010.1
2023-01-03T05:27:57.747Z,1010.1
2023-01-03T05:28:58.873Z,1010.1
2023-01-03T05:30:00.008Z,1010.1
2023-01-03T05:31:01.141Z,1010.2
2023-01-03T05:32:02.129Z,1010.2
2023-01-03T05:33:03.061Z,1010.2
2023-01-03T05:34:04.483Z,1010.2
2023-01-03T05:35:05.896Z,1010.3
2023-01-03T05:36:07.320Z,1010.3
2023-01-03T05:37:08.461Z,1010.3
2023-01-03T05:38:09.637Z,1010.4
2023-01-03T05:39:10.494Z,1010.4
2023-01-03T05:40:11.132Z,1010.5
2023-01-03T05:41:12.273Z,1010.5
2023-01-03T05:42:13.392Z,1010.5
2023-01-03T05:43:14.528Z,1010.5
2023-01-03T05:44:15.660Z,1010.5
2023-01-03T05:45:16.563Z,1010.5
2023-01-03T05:46:17.781Z,1010.5
2023-01-03T05:47:19.345Z,1010.5
2023-01-03T05:48:20.534Z,1010.4
2023-01-03T05:49:21.647Z,1010.4
2023-01-03T05:50:22.498Z,1010.4
2023-01-03T05:51:23.653Z,1010.4
2023-01-03T05:52:24.831Z,1010.4
2023-01-03T05:53:26.260Z,1010.3
2023-01-03T05:54:27.585Z,1010.3
2023-01-03T05:55:29.000Z,1010.3
2023-01-03T05:56:29.924Z,1010.4
2023-01-03T05:57:35.895Z,1010.4
2023-01-03T05:58:36.830Z,1010.4
2023-01-03T05:59:37.689Z,1010.4
2023-01-03T06:00:39.106Z,1010.4
2023-01-03T06:01:40.581Z,1010.4
2023-01-03T06:02:41.730Z,1010.4
2023-01-03T06:03:42.896Z,1010.4
2023-01-03T06:04:44.306Z,1010.4
2023-01-03T06:05:50.764Z,1010.4
2023-01-03T06:06:52.172Z,1010.4
2023-01-03T06:07:53.600Z,1010.4
2023-01-03T06:08:55.010Z,1010.4
2023-01-03T06:09:55.982Z,1010.4
2023-01-03T06:10:56.806Z,1010.5
2023-01-03T06:11:57.949Z,1010.5
2023-01-03T06:12:59.057Z,1010.5
2023-01-03T06:13:59.987Z,1010.5
2023-01-03T06:15:00.843Z,1010.5
2023-01-03T06:16:02.256Z,1010.5
2023-01-03T06:17:03.331Z,1010.6
2023-01-03T06:18:04.531Z,1010.5
2023-01-03T06:19:05.457Z,1010.5
2023-01-03T06:20:06.338Z,1010.5
2023-01-03T06:21:07.549Z,1010.5
2023-01-03T06:22:11.511Z,1010.5
2023-01-03T06:23:12.974Z,1010.5
2023-01-03T06:24:14.398Z,1010.5
2023-01-03T06:25:15.804Z,1010.6
2023-01-03T06:26:16.994Z,1010.5
2023-01-03T06:27:18.431Z,1010.5
2023-01-03T06:28:19.821Z,1010.5
2023-01-03T06:29:20.963Z,1010.5
2023-01-03T06:30:21.866Z,1010.5
2023-01-03T06:31:23.012Z,1010.5
2023-01-03T06:32:24.169Z,1010.6
2023-01-03T06:33:25.304Z,1010.6
2023-01-03T06:34:26.443Z,1010.5
2023-01-03T06:35:27.865Z,1010.5
2023-01-03T06:36:28.991Z,1010.5
2023-01-03T06:37:30.138Z,1010.5
2023-01-03T06:38:31.265Z,1010.5
2023-01-03T06:39:32.165Z,1010.6
2023-01-03T06:40:45.525Z,1010.5
2023-01-03T06:41:46.583Z,1010.5
2023-01-03T06:42:50.253Z,1010.5
2023-01-03T06:43:51.533Z,1010.5
2023-01-03T06:44:52.462Z,1010.5
2023-01-03T06:45:53.174Z,1010.5
2023-01-03T06:46:54.303Z,1010.5
2023-01-03T06:47:55.759Z,1010.6
2023-01-03T06:48:57.166Z,1010.6
2023-01-03T06:49:58.293Z,1010.6
2023-01-03T06:50:59.227Z,1010.6
2023-01-03T06:52:00.344Z,1010.6
2023-01-03T06:53:01.211Z,1010.6
2023-01-03T06:54:02.345Z,1010.6
2023-01-03T06:55:03.532Z,1010.7
2023-01-03T06:56:04.954Z,1010.7
2023-01-03T06:57:05.872Z,1010.7
2023-01-03T06:58:07.142Z,1010.8
2023-01-03T06:59:08.390Z,1010.8
2023-01-03T07:00:09.615Z,1010.8
2023-01-03T07:01:11.135Z,1010.8
2023-01-03T07:02:12.505Z,1010.8
2023-01-03T07:03:13.909Z,1010.8
2023-01-03T07:04:15.660Z,1010.8
2023-01-03T07:05:17.220Z,1010.8
2023-01-03T07:06:18.608Z,1010.8
2023-01-03T07:07:19.460Z,1010.9
2023-01-03T07:08:20.870Z,1010.9
2023-01-03T07:09:22.087Z,1010.9
2023-01-03T07:10:23.211Z,1010.9
2023-01-03T07:11:23.853Z,1010.9
2023-01-03T07:12:25.270Z,1010.9
2023-01-03T07:13:26.195Z,1010.9
2023-01-03T07:14:27.307Z,1010.9
2023-01-03T07:15:28.529Z,1010.9
2023-01-03T07:16:29.898Z,1010.9
2023-01-03T07:17:31.071Z,1010.9
2023-01-03T07:18:31.997Z,1010.9
2023-01-03T07:19:33.175Z,1010.9
2023-01-03T07:20:34.308Z,1011
2023-01-03T07:21:35.747Z,1011
2023-01-03T07:22:36.874Z,1011
2023-01-03T07:23:37.719Z,1011
2023-01-03T07:24:38.913Z,1011
2023-01-03T07:25:40.329Z,1011
2023-01-03T07:26:41.469Z,1011
2023-01-03T07:27:42.877Z,1011
2023-01-03T07:28:44.084Z,1011
2023-01-03T07:29:45.472Z,1011
2023-01-03T07:30:46.807Z,1011
2023-01-03T07:31:48.701Z,1011
2023-01-03T07:32:50.285Z,1011
2023-01-03T07:33:51.697Z,1011.1
2023-01-03T07:34:53.127Z,1011.1
2023-01-03T07:35:54.534Z,1011.1
2023-01-03T07:36:55.946Z,1011.1
2023-01-03T07:37:57.084Z,1011.1
2023-01-03T07:38:58.241Z,1011.1
2023-01-03T07:39:59.417Z,1011.1
2023-01-03T07:41:00.322Z,1011
2023-01-03T07:42:01.733Z,1011.1
2023-01-03T07:43:03.148Z,1011.1
2023-01-03T07:44:04.586Z,1011.1
2023-01-03T07:45:05.724Z,1011.1
2023-01-03T07:46:07.138Z,1011.1
2023-01-03T07:47:08.611Z,1011.2
2023-01-03T07:48:09.744Z,1011.2
2023-01-03T07:49:12.686Z,1011.2
2023-01-03T07:50:13.938Z,1011.2
2023-01-03T07:51:15.345Z,1011.3
2023-01-03T07:52:16.763Z,1011.3
2023-01-03T07:53:18.179Z,1011.3
2023-01-03T07:54:19.374Z,1011.3
2023-01-03T07:55:20.566Z,1011.3
2023-01-03T07:56:21.976Z,1011.4
2023-01-03T07:57:23.536Z,1011.4
2023-01-03T07:58:24.952Z,1011.4
2023-01-03T07:59:26.193Z,1011.4
2023-01-03T08:00:27.675Z,1011.4
2023-01-03T08:01:28.968Z,1011.5
2023-01-03T08:02:30.754Z,1011.5
2023-01-03T08:03:32.172Z,1011.5
2023-01-03T08:04:33.135Z,1011.5
2023-01-03T08:05:34.281Z,1011.5
2023-01-03T08:06:35.402Z,1011.6
2023-01-03T08:07:36.581Z,1011.6
2023-01-03T08:08:37.488Z,1011.6
2023-01-03T08:09:38.672Z,1011.6
2023-01-03T08:10:39.572Z,1011.6
2023-01-03T08:11:40.952Z,1011.6
2023-01-03T08:12:42.089Z,1011.7
2023-01-03T08:13:43.278Z,1011.6
2023-01-03T08:14:44.195Z,1011.7
2023-01-03T08:15:45.441Z,1011.7
2023-01-03T08:16:47.024Z,1011.7
2023-01-03T08:17:47.933Z,1011.7
2023-01-03T08:18:48.545Z,1011.7
2023-01-03T08:19:49.173Z,1011.7
2023-01-03T08:20:50.036Z,1011.7
2023-01-03T08:21:51.168Z,1011.7
2023-01-03T08:22:52.344Z,1011.7
2023-01-03T08:23:53.494Z,1011.7
2023-01-03T08:24:54.685Z,1011.7
2023-01-03T08:25:55.819Z,1011.7
2023-01-03T08:26:56.956Z,1011.7
2023-01-03T08:27:58.097Z,1011.7
2023-01-03T08:28:59.292Z,1011.8
2023-01-03T08:30:00.713Z,1011.8
2023-01-03T08:31:01.921Z,1011.8
2023-01-03T08:32:03.311Z,1011.8
2023-01-03T08:33:04.212Z,1011.8
2023-01-03T08:34:16.700Z,1011.8
2023-01-03T08:35:28.224Z,1011.7
2023-01-03T08:36:29.137Z,1011.8
2023-01-03T08:37:30.557Z,1011.8
2023-01-03T08:38:31.969Z,1011.8
2023-01-03T08:39:33.384Z,1011.8
2023-01-03T08:40:42.644Z,1011.8
2023-01-03T08:41:43.900Z,1011.8
2023-01-03T08:42:44.813Z,1011.8
2023-01-03T08:43:46.208Z,1011.8
2023-01-03T08:44:47.344Z,1011.8
2023-01-03T08:45:48.506Z,1011.8
2023-01-03T08:46:49.926Z,1011.8
2023-01-03T08:47:51.258Z,1011.8
2023-01-03T08:48:52.166Z,1011.8
2023-01-03T08:49:53.027Z,1011.9
2023-01-03T08:50:54.435Z,1011.9
2023-01-03T08:51:55.851Z,1011.9
2023-01-03T08:52:56.993Z,1011.9
2023-01-03T08:53:58.242Z,1011.9
2023-01-03T08:54:59.448Z,1011.9
2023-01-03T08:56:00.627Z,1012
2023-01-03T08:57:01.485Z,1012
2023-01-03T08:58:02.893Z,1012
2023-01-03T08:59:04.313Z,1012
2023-01-03T09:00:05.732Z,1012
2023-01-03T09:01:07.050Z,1012
2023-01-03T09:02:08.802Z,1012.1
2023-01-03T09:03:11.286Z,1012.1
2023-01-03T09:04:13.475Z,1012.1
2023-01-03T09:05:14.516Z,1012.1
2023-01-03T09:06:15.699Z,1012.1
2023-01-03T09:07:16.899Z,1012.1
2023-01-03T09:08:17.807Z,1012
2023-01-03T09:09:18.659Z,1012
2023-01-03T09:10:20.076Z,1012
2023-01-03T09:11:21.485Z,1012
2023-01-03T09:12:22.352Z,1012
2023-01-03T09:13:23.765Z,1012
2023-01-03T09:14:24.616Z,1012
2023-01-03T09:15:26.040Z,1012
2023-01-03T09:16:27.646Z,1012
2023-01-03T09:17:29.216Z,1012
2023-01-03T09:18:30.176Z,1012
2023-01-03T09:19:31.297Z,1012
2023-01-03T09:20:32.490Z,1012
2023-01-03T09:21:33.112Z,1012.1
2023-01-03T09:22:34.525Z,1012.1
2023-01-03T09:23:35.148Z,1012.1
2023-01-03T09:24:36.003Z,1012.1
2023-01-03T09:25:38.296Z,1012.1
2023-01-03T09:26:39.440Z,1012.1
2023-01-03T09:27:40.848Z,1012.2
2023-01-03T09:28:41.986Z,1012.2
2023-01-03T09:29:43.121Z,1012.2
2023-01-03T09:30:44.557Z,1012.2
2023-01-03T09:31:46.727Z,1012.2
2023-01-03T09:32:48.063Z,1012.2
2023-01-03T09:33:48.920Z,1012.2
2023-01-03T09:34:50.127Z,1012.2
2023-01-03T09:35:51.025Z,1012.2
2023-01-03T09:36:52.439Z,1012.1
2023-01-03T09:37:53.583Z,1012.2
2023-01-03T09:38:54.709Z,1012.2
2023-01-03T09:39:55.850Z,1012.2
2023-01-03T09:40:57.265Z,1012.2
2023-01-03T09:41:58.401Z,1012.2
2023-01-03T09:42:59.543Z,1012.2
2023-01-03T09:44:00.717Z,1012.2
2023-01-03T09:45:02.140Z,1012.2
2023-01-03T09:46:03.283Z,1012.1
2023-01-03T09:47:04.783Z,1012.1
2023-01-03T09:48:05.825Z,1012.1
2023-01-03T09:49:07.057Z,1012.1
2023-01-03T09:51:05.806Z,1012.1
2023-01-03T09:52:21.898Z,1012.2
2023-01-03T09:53:23.328Z,1012.2
2023-01-03T09:54:23.942Z,1012.2
2023-01-03T09:55:24.856Z,1012.1
2023-01-03T09:56:26.323Z,1012.2
2023-01-03T09:57:28.929Z,1012.2
2023-01-03T09:58:30.346Z,1012.2
2023-01-03T09:59:31.760Z,1012.2
2023-01-03T10:00:33.263Z,1012.2
2023-01-03T10:01:34.479Z,1012.2
2023-01-03T10:02:36.404Z,1012.2
2023-01-03T10:03:37.745Z,1012.2
2023-01-03T10:04:38.970Z,1012.2
2023-01-03T10:05:40.390Z,1012.2
2023-01-03T10:06:41.257Z,1012.2
2023-01-03T10:07:42.413Z,1012.2
2023-01-03T10:08:43.831Z,1012.2
2023-01-03T10:09:45.019Z,1012.2
2023-01-03T10:10:46.181Z,1012.2
2023-01-03T10:11:47.596Z,1012.2
2023-01-03T10:12:49.022Z,1012.2
2023-01-03T10:13:50.146Z,1012.2
2023-01-03T10:14:51.286Z,1012.2
2023-01-03T10:15:52.734Z,1012.2
2023-01-03T10:16:54.084Z,1012.2
2023-01-03T10:17:55.599Z,1012.2
2023-01-03T10:18:56.982Z,1012.2
2023-01-03T10:19:57.854Z,1012.2
2023-01-03T10:20:58.988Z,1012.1
2023-01-03T10:22:00.149Z,1012.1
2023-01-03T10:23:01.272Z,1012.2
2023-01-03T10:24:02.688Z,1012.2
2023-01-03T10:25:04.093Z,1012.2
2023-01-03T10:26:05.231Z,1012.2
2023-01-03T10:27:05.859Z,1012.2
2023-01-03T10:28:07.273Z,1012.2
2023-01-03T10:29:08.450Z,1012.2
2023-01-03T10:30:09.358Z,1012.2
2023-01-03T10:31:10.225Z,1012.2
2023-01-03T10:32:11.317Z,1012.1
2023-01-03T10:33:12.820Z,1012.1
2023-01-03T10:34:13.732Z,1012.1
2023-01-03T10:35:15.166Z,1012.1
2023-01-03T10:36:15.776Z,1012.1
2023-01-03T10:37:16.705Z,1012.1
2023-01-03T10:38:17.846Z,1012
2023-01-03T10:39:18.983Z,1012
2023-01-03T10:40:20.022Z,1012
2023-01-03T10:41:21.455Z,1012
2023-01-03T10:42:22.602Z,1011.9
2023-01-03T10:43:23.729Z,1011.9
2023-01-03T10:44:25.148Z,1011.9
2023-01-03T10:45:26.736Z,1011.9
2023-01-03T10:46:27.785Z,1011.9
2023-01-03T10:47:29.186Z,1011.9
2023-01-03T10:48:52.902Z,1012
2023-01-03T10:50:28.438Z,1012
2023-01-03T10:51:30.331Z,1012
2023-01-03T10:52:31.752Z,1012
2023-01-03T10:53:33.162Z,1012
2023-01-03T10:54:34.217Z,1012
2023-01-03T10:55:35.790Z,1012
2023-01-03T10:56:36.980Z,1012
2023-01-03T10:57:38.398Z,1012
2023-01-03T10:58:39.984Z,1012
2023-01-03T10:59:41.548Z,1011.9
2023-01-03T11:00:43.246Z,1011.9
2023-01-03T11:01:44.808Z,1011.9
2023-01-03T11:02:46.671Z,1011.9
2023-01-03T11:03:52.240Z,1011.9
2023-01-03T11:04:53.054Z,1011.9
2023-01-03T11:05:53.701Z,1012
2023-01-03T11:06:55.118Z,1011.9
2023-01-03T11:07:55.746Z,1012
2023-01-03T11:08:56.596Z,1011.9
2023-01-03T11:09:57.219Z,1011.9
2023-01-03T11:10:58.405Z,1011.9
2023-01-03T11:11:59.862Z,1011.9
2023-01-03T11:13:00.999Z,1011.9
2023-01-03T11:14:01.907Z,1011.9
2023-01-03T11:15:03.318Z,1011.9
2023-01-03T11:16:04.590Z,1011.9
2023-01-03T11:17:05.820Z,1011.9
2023-01-03T11:18:07.184Z,1011.9
2023-01-03T11:19:08.401Z,1011.9
2023-01-03T11:20:09.787Z,1011.9
2023-01-03T11:21:11.225Z,1011.9
2023-01-03T11:22:12.627Z,1011.9
2023-01-03T11:23:14.033Z,1011.9
2023-01-03T11:24:15.265Z,1011.8
2023-01-03T11:25:16.171Z,1011.8
2023-01-03T11:26:17.024Z,1011.8
2023-01-03T11:27:18.165Z,1011.7
2023-01-03T11:28:19.573Z,1011.8
2023-01-03T11:29:21.146Z,1011.7
2023-01-03T11:30:22.286Z,1011.7
2023-01-03T11:31:23.856Z,1011.8
2023-01-03T11:32:25.618Z,1011.7
2023-01-03T11:33:30.030Z,1011.7
2023-01-03T11:35:21.859Z,1011.6
2023-01-03T11:36:26.110Z,1011.6
2023-01-03T11:37:27.530Z,1011.6
2023-01-03T11:38:28.949Z,1011.6
2023-01-03T11:39:30.368Z,1011.6
2023-01-03T11:40:31.797Z,1011.6
2023-01-03T11:41:32.934Z,1011.6
2023-01-03T11:42:34.068Z,1011.6
2023-01-03T11:43:35.198Z,1011.5
2023-01-03T11:44:36.334Z,1011.5
2023-01-03T11:45:48.643Z,1011.6
2023-01-03T11:46:51.006Z,1011.6
2023-01-03T11:47:52.641Z,1011.6
2023-01-03T11:48:53.561Z,1011.5
2023-01-03T11:49:54.466Z,1011.5
2023-01-03T11:50:55.669Z,1011.5
2023-01-03T11:51:56.825Z,1011.5
2023-01-03T11:52:58.355Z,1011.5
2023-01-03T11:53:59.486Z,1011.5
2023-01-03T11:55:00.632Z,1011.5
2023-01-03T11:56:02.046Z,1011.5
2023-01-03T11:57:03.465Z,1011.5
2023-01-03T11:58:04.920Z,1011.5
2023-01-03T11:59:06.338Z,1011.5
2023-01-03T12:00:07.760Z,1011.5
2023-01-03T12:01:09.061Z,1011.5
2023-01-03T12:02:11.025Z,1011.5
2023-01-03T12:03:13.063Z,1011.5
2023-01-03T12:04:14.981Z,1011.5
2023-01-03T12:05:16.485Z,1011.5
2023-01-03T12:06:17.641Z,1011.5
2023-01-03T12:07:49.450Z,1011.5
2023-01-03T12:08:50.848Z,1011.5
2023-01-03T12:09:52.266Z,1011.4
2023-01-03T12:10:53.677Z,1011.4
2023-01-03T12:11:55.114Z,1011.4
2023-01-03T12:12:56.519Z,1011.4
2023-01-03T12:13:57.927Z,1011.4
2023-01-03T12:15:01.201Z,1011.4
2023-01-03T12:16:02.386Z,1011.4
2023-01-03T12:17:03.884Z,1011.4
2023-01-03T12:18:05.004Z,1011.4
2023-01-03T12:19:12.912Z,1011.4
2023-01-03T12:20:14.385Z,1011.3
2023-01-03T12:21:15.342Z,1011.3
2023-01-03T12:22:16.905Z,1011.3
2023-01-03T12:23:18.240Z,1011.3
2023-01-03T12:24:19.385Z,1011.3
2023-01-03T12:25:20.606Z,1011.3
2023-01-03T12:26:21.776Z,1011.3
2023-01-03T12:27:22.698Z,1011.4
2023-01-03T12:28:23.833Z,1011.3
2023-01-03T12:29:25.253Z,1011.3
2023-01-03T12:30:26.695Z,1011.3
2023-01-03T12:31:32.654Z,1011.3
2023-01-03T12:32:34.189Z,1011.3
2023-01-03T12:33:35.686Z,1011.3
2023-01-03T12:34:37.079Z,1011.3
2023-01-03T12:35:38.618Z,1011.3
2023-01-03T12:36:39.873Z,1011.3
2023-01-03T12:37:41.045Z,1011.3
2023-01-03T12:38:41.966Z,1011.3
2023-01-03T12:39:43.177Z,1011.2
2023-01-03T12:40:44.720Z,1011.2
2023-01-03T12:41:45.879Z,1011.2
2023-01-03T12:42:47.079Z,1011.2
2023-01-03T12:43:47.710Z,1011.2
2023-01-03T12:44:48.621Z,1011.2
2023-01-03T12:45:49.850Z,1011.2
2023-01-03T12:46:51.278Z,1011.2
2023-01-03T12:47:52.744Z,1011.2
2023-01-03T12:48:54.151Z,1011.2
2023-01-03T12:49:55.022Z,1011.2
2023-01-03T12:50:56.194Z,1011.2
2023-01-03T12:51:57.626Z,1011.2
2023-01-03T12:53:01.255Z,1011.2
2023-01-03T12:54:02.263Z,1011.2
2023-01-03T12:55:03.687Z,1011.1
2023-01-03T12:56:04.861Z,1011.1
2023-01-03T12:57:06.038Z,1011.1